Etusivu
METAR-TAF:

METAR-TAF

Lentoasemat :

Ørsta-Voldan lentoasema

Ørsta-Volda, Norja

Leveyspiiri: 62-11N, Pituuspiiri: 006-04E, korkeus merenpinnasta: 7 m

Tämänhetkinen sää

Tämä raportti tehtiin 1 tunti ja 50 minuuttia sitten, kello 21.50 UTC
Tuuli 2 kn eri suunnista
Lämpötila -4°C
Kosteus 100%
Ilmanpaine 1028 hPa
Näkyvyys 10 km tai enemmän
ei pilviä alle 1500 m:ssä eikä cumulonimbus-pilviä

METAR: ENOV 202150Z VRB02KT CAVOK M04/M04 Q1028 RMK WIND 2175FT 15014KT

Aika: 00:40 (23:40 UTC)


TAF: puuttuu

Säähavainnot ja -ennusteet yli 4000 lentoasemalta (METAR- ja TAF-raportit).

Käytössä olevat sääasemat on merkitty karttaan keltaisilla ja punaisilla pisteillä.

Aseta hiiri pisteen päälle nähdäksesi sääaseman nimen.

Klikkaa sitten nähdäksesi säähavainnot ja -ennusteet.

Kartan vaihtaminen: klikkaa mustalla rastilla varustettuja vihreitä pisteitä, niin voit zoomata sisään; viivalla varustettua vihreää pistettä, niin voit zoomata ulos tai vihreitä nuolia, niin pääset viereisille kartoille.


METAR-TAF: